Terminal Aerodrome Forecast
Issued by NWS Twin Cities, MN

Home | Current Version | Previous Version | Text Only | Print | Product List | Glossary On
Versions: 1 2 3 4 5 6 7 8 9 10 11 12 13 14 15 16 17 18 19 20
000
FTUS43 KMPX 211700
TAFEAU
TAF
KEAU 211724Z 2118/2218 18012KT P6SM BKN050
     FM212300 16010KT P6SM SCT050 BKN150
     FM220800 17008KT P6SM VCTS BKN020 BKN050CB OVC100
     FM221200 20011KT 5SM HZ BKN015
     FM221500 25014G21KT P6SM SCT020 BKN150=

USA.gov is the U.S. government's official web portal to all federal, state and local government web resources and services.